sensor_id;sensor_type;location;lat;lon;timestamp;P1;durP1;ratioP1;P2;durP2;ratioP2
17921;SDS011;9086;50.966;3.144;2022-10-15T00:00:26;14.10;;;12.80;;
17921;SDS011;9086;50.966;3.144;2022-10-15T00:02:52;13.40;;;12.13;;
17921;SDS011;9086;50.966;3.144;2022-10-15T00:05:19;12.10;;;11.07;;
17921;SDS011;9086;50.966;3.144;2022-10-15T00:07:45;11.60;;;10.70;;
17921;SDS011;9086;50.966;3.144;2022-10-15T00:10:11;12.40;;;11.30;;
17921;SDS011;9086;50.966;3.144;2022-10-15T00:12:37;11.93;;;10.77;;
17921;SDS011;9086;50.966;3.144;2022-10-15T00:15:03;10.97;;;9.97;;
17921;SDS011;9086;50.966;3.144;2022-10-15T00:17:30;10.33;;;9.33;;
17921;SDS011;9086;50.966;3.144;2022-10-15T00:19:56;9.73;;;8.97;;
17921;SDS011;9086;50.966;3.144;2022-10-15T00:22:22;9.53;;;8.80;;
17921;SDS011;9086;50.966;3.144;2022-10-15T00:24:48;8.27;;;7.57;;
17921;SDS011;9086;50.966;3.144;2022-10-15T00:27:14;9.03;;;8.33;;
17921;SDS011;9086;50.966;3.144;2022-10-15T00:29:40;8.33;;;7.63;;
17921;SDS011;9086;50.966;3.144;2022-10-15T00:32:06;8.57;;;7.77;;
17921;SDS011;9086;50.966;3.144;2022-10-15T00:34:32;7.87;;;7.20;;
17921;SDS011;9086;50.966;3.144;2022-10-15T00:36:58;7.90;;;7.20;;
17921;SDS011;9086;50.966;3.144;2022-10-15T00:39:24;7.43;;;6.83;;
17921;SDS011;9086;50.966;3.144;2022-10-15T00:41:51;8.43;;;7.70;;
17921;SDS011;9086;50.966;3.144;2022-10-15T00:46:46;7.70;;;7.10;;
17921;SDS011;9086;50.966;3.144;2022-10-15T00:49:17;9.07;;;8.27;;
17921;SDS011;9086;50.966;3.144;2022-10-15T00:51:45;8.03;;;7.33;;
17921;SDS011;9086;50.966;3.144;2022-10-15T00:54:12;9.63;;;8.77;;
17921;SDS011;9086;50.966;3.144;2022-10-15T00:56:39;10.00;;;9.10;;
17921;SDS011;9086;50.966;3.144;2022-10-15T00:59:06;10.93;;;10.00;;
17921;SDS011;9086;50.966;3.144;2022-10-15T01:01:33;11.10;;;10.20;;
17921;SDS011;9086;50.966;3.144;2022-10-15T01:03:59;13.50;;;12.30;;
17921;SDS011;9086;50.966;3.144;2022-10-15T01:06:26;12.90;;;11.80;;
17921;SDS011;9086;50.966;3.144;2022-10-15T01:08:53;16.10;;;14.60;;
17921;SDS011;9086;50.966;3.144;2022-10-15T01:13:52;14.07;;;12.73;;
17921;SDS011;9086;50.966;3.144;2022-10-15T01:16:31;15.03;;;13.33;;
17921;SDS011;9086;50.966;3.144;2022-10-15T01:19:01;13.53;;;12.23;;
17921;SDS011;9086;50.966;3.144;2022-10-15T01:21:46;15.00;;;13.50;;
17921;SDS011;9086;50.966;3.144;2022-10-15T01:24:36;14.20;;;13.00;;
17921;SDS011;9086;50.966;3.144;2022-10-15T01:29:57;13.93;;;12.67;;
17921;SDS011;9086;50.966;3.144;2022-10-15T01:32:27;13.63;;;12.50;;
17921;SDS011;9086;50.966;3.144;2022-10-15T01:37:28;12.17;;;11.07;;
17921;SDS011;9086;50.966;3.144;2022-10-15T01:40:03;13.47;;;12.17;;
17921;SDS011;9086;50.966;3.144;2022-10-15T01:42:32;11.87;;;10.80;;
17921;SDS011;9086;50.966;3.144;2022-10-15T01:45:01;13.27;;;11.97;;
17921;SDS011;9086;50.966;3.144;2022-10-15T01:47:39;13.70;;;12.13;;
17921;SDS011;9086;50.966;3.144;2022-10-15T01:50:06;13.70;;;12.43;;
17921;SDS011;9086;50.966;3.144;2022-10-15T01:52:33;14.63;;;13.33;;
17921;SDS011;9086;50.966;3.144;2022-10-15T01:55:02;14.00;;;12.70;;
17921;SDS011;9086;50.966;3.144;2022-10-15T01:57:29;13.60;;;12.40;;
17921;SDS011;9086;50.966;3.144;2022-10-15T01:59:57;14.57;;;13.13;;
17921;SDS011;9086;50.966;3.144;2022-10-15T02:02:23;14.10;;;12.90;;
17921;SDS011;9086;50.966;3.144;2022-10-15T02:04:49;15.30;;;13.87;;
17921;SDS011;9086;50.966;3.144;2022-10-15T02:09:49;15.23;;;13.83;;
17921;SDS011;9086;50.966;3.144;2022-10-15T02:14:59;15.00;;;13.70;;
17921;SDS011;9086;50.966;3.144;2022-10-15T02:17:34;16.60;;;14.03;;
17921;SDS011;9086;50.966;3.144;2022-10-15T02:20:13;15.43;;;14.13;;
17921;SDS011;9086;50.966;3.144;2022-10-15T02:23:01;15.57;;;14.20;;
17921;SDS011;9086;50.966;3.144;2022-10-15T02:25:28;14.73;;;13.43;;
17921;SDS011;9086;50.966;3.144;2022-10-15T02:27:55;15.47;;;14.27;;
17921;SDS011;9086;50.966;3.144;2022-10-15T02:30:22;14.80;;;13.30;;
17921;SDS011;9086;50.966;3.144;2022-10-15T02:32:51;14.83;;;13.53;;
17921;SDS011;9086;50.966;3.144;2022-10-15T02:35:17;14.63;;;13.40;;
17921;SDS011;9086;50.966;3.144;2022-10-15T02:37:45;13.37;;;12.27;;
17921;SDS011;9086;50.966;3.144;2022-10-15T02:40:12;14.37;;;13.10;;
17921;SDS011;9086;50.966;3.144;2022-10-15T02:42:38;13.87;;;12.57;;
17921;SDS011;9086;50.966;3.144;2022-10-15T02:45:05;14.37;;;13.07;;
17921;SDS011;9086;50.966;3.144;2022-10-15T02:47:31;14.00;;;12.77;;
17921;SDS011;9086;50.966;3.144;2022-10-15T02:49:57;14.13;;;12.93;;
17921;SDS011;9086;50.966;3.144;2022-10-15T02:52:23;14.17;;;13.00;;
17921;SDS011;9086;50.966;3.144;2022-10-15T02:54:49;13.67;;;12.57;;
17921;SDS011;9086;50.966;3.144;2022-10-15T02:57:15;13.63;;;12.37;;
17921;SDS011;9086;50.966;3.144;2022-10-15T02:59:41;14.07;;;12.87;;
17921;SDS011;9086;50.966;3.144;2022-10-15T03:02:07;14.77;;;13.53;;
17921;SDS011;9086;50.966;3.144;2022-10-15T03:04:33;16.00;;;14.60;;
17921;SDS011;9086;50.966;3.144;2022-10-15T03:06:59;13.37;;;12.37;;
17921;SDS011;9086;50.966;3.144;2022-10-15T03:09:25;15.30;;;13.63;;
17921;SDS011;9086;50.966;3.144;2022-10-15T03:11:51;14.67;;;13.37;;
17921;SDS011;9086;50.966;3.144;2022-10-15T03:14:17;14.37;;;13.17;;
17921;SDS011;9086;50.966;3.144;2022-10-15T03:16:43;16.17;;;14.87;;
17921;SDS011;9086;50.966;3.144;2022-10-15T03:19:10;16.77;;;15.27;;
17921;SDS011;9086;50.966;3.144;2022-10-15T03:21:36;15.00;;;13.63;;
17921;SDS011;9086;50.966;3.144;2022-10-15T03:24:02;16.67;;;15.37;;
17921;SDS011;9086;50.966;3.144;2022-10-15T03:26:28;17.43;;;15.93;;
17921;SDS011;9086;50.966;3.144;2022-10-15T03:28:54;17.30;;;15.93;;
17921;SDS011;9086;50.966;3.144;2022-10-15T03:31:20;16.93;;;15.53;;
17921;SDS011;9086;50.966;3.144;2022-10-15T03:33:46;15.37;;;14.17;;
17921;SDS011;9086;50.966;3.144;2022-10-15T03:36:12;16.57;;;15.27;;
17921;SDS011;9086;50.966;3.144;2022-10-15T03:38:38;16.23;;;14.60;;
17921;SDS011;9086;50.966;3.144;2022-10-15T03:41:04;16.50;;;15.17;;
17921;SDS011;9086;50.966;3.144;2022-10-15T03:43:30;17.50;;;16.10;;
17921;SDS011;9086;50.966;3.144;2022-10-15T03:45:59;15.30;;;14.13;;
17921;SDS011;9086;50.966;3.144;2022-10-15T03:48:26;16.93;;;15.73;;
17921;SDS011;9086;50.966;3.144;2022-10-15T03:50:52;17.37;;;15.90;;
17921;SDS011;9086;50.966;3.144;2022-10-15T03:53:18;20.10;;;18.63;;
17921;SDS011;9086;50.966;3.144;2022-10-15T03:55:44;18.63;;;17.13;;
17921;SDS011;9086;50.966;3.144;2022-10-15T03:58:10;19.17;;;17.50;;
17921;SDS011;9086;50.966;3.144;2022-10-15T04:00:36;18.77;;;17.17;;
17921;SDS011;9086;50.966;3.144;2022-10-15T04:03:02;19.23;;;17.67;;
17921;SDS011;9086;50.966;3.144;2022-10-15T04:05:28;18.90;;;17.43;;
17921;SDS011;9086;50.966;3.144;2022-10-15T04:07:55;17.37;;;15.90;;
17921;SDS011;9086;50.966;3.144;2022-10-15T04:10:21;17.87;;;16.47;;
17921;SDS011;9086;50.966;3.144;2022-10-15T04:12:47;19.20;;;17.70;;
17921;SDS011;9086;50.966;3.144;2022-10-15T04:15:13;17.83;;;16.23;;
17921;SDS011;9086;50.966;3.144;2022-10-15T04:17:39;17.23;;;15.90;;
17921;SDS011;9086;50.966;3.144;2022-10-15T04:20:05;18.57;;;17.00;;
17921;SDS011;9086;50.966;3.144;2022-10-15T04:22:31;18.27;;;16.87;;
17921;SDS011;9086;50.966;3.144;2022-10-15T04:24:57;17.47;;;16.13;;
17921;SDS011;9086;50.966;3.144;2022-10-15T04:27:23;16.03;;;14.87;;
17921;SDS011;9086;50.966;3.144;2022-10-15T04:29:49;16.27;;;15.07;;
17921;SDS011;9086;50.966;3.144;2022-10-15T04:32:15;17.87;;;16.57;;
17921;SDS011;9086;50.966;3.144;2022-10-15T04:34:42;16.67;;;15.50;;
17921;SDS011;9086;50.966;3.144;2022-10-15T04:37:10;16.97;;;15.67;;
17921;SDS011;9086;50.966;3.144;2022-10-15T04:39:36;15.97;;;14.77;;
17921;SDS011;9086;50.966;3.144;2022-10-15T04:42:02;15.90;;;14.73;;
17921;SDS011;9086;50.966;3.144;2022-10-15T04:44:28;17.00;;;15.70;;
17921;SDS011;9086;50.966;3.144;2022-10-15T04:46:54;16.63;;;15.37;;
17921;SDS011;9086;50.966;3.144;2022-10-15T04:49:20;16.97;;;15.47;;
17921;SDS011;9086;50.966;3.144;2022-10-15T04:51:46;17.97;;;16.57;;
17921;SDS011;9086;50.966;3.144;2022-10-15T04:54:12;17.43;;;16.13;;
17921;SDS011;9086;50.966;3.144;2022-10-15T04:56:39;16.43;;;15.23;;
17921;SDS011;9086;50.966;3.144;2022-10-15T04:59:05;16.60;;;15.40;;
17921;SDS011;9086;50.966;3.144;2022-10-15T05:01:32;15.57;;;14.27;;
17921;SDS011;9086;50.966;3.144;2022-10-15T05:03:58;18.17;;;16.37;;
17921;SDS011;9086;50.966;3.144;2022-10-15T05:06:24;18.27;;;16.87;;
17921;SDS011;9086;50.966;3.144;2022-10-15T05:08:50;17.73;;;16.20;;
17921;SDS011;9086;50.966;3.144;2022-10-15T05:11:21;19.97;;;18.57;;
17921;SDS011;9086;50.966;3.144;2022-10-15T05:13:47;19.70;;;18.30;;
17921;SDS011;9086;50.966;3.144;2022-10-15T05:18:40;19.13;;;17.63;;
17921;SDS011;9086;50.966;3.144;2022-10-15T05:21:06;21.57;;;20.07;;
17921;SDS011;9086;50.966;3.144;2022-10-15T05:23:32;21.60;;;20.10;;
17921;SDS011;9086;50.966;3.144;2022-10-15T05:26:02;22.43;;;20.93;;
17921;SDS011;9086;50.966;3.144;2022-10-15T05:28:28;21.80;;;20.27;;
17921;SDS011;9086;50.966;3.144;2022-10-15T05:30:54;22.33;;;20.83;;
17921;SDS011;9086;50.966;3.144;2022-10-15T05:33:20;22.90;;;21.30;;
17921;SDS011;9086;50.966;3.144;2022-10-15T05:35:46;24.17;;;22.57;;
17921;SDS011;9086;50.966;3.144;2022-10-15T05:38:13;24.13;;;22.43;;
17921;SDS011;9086;50.966;3.144;2022-10-15T05:40:39;23.73;;;22.10;;
17921;SDS011;9086;50.966;3.144;2022-10-15T05:43:05;23.47;;;21.87;;
17921;SDS011;9086;50.966;3.144;2022-10-15T05:45:31;24.40;;;22.40;;
17921;SDS011;9086;50.966;3.144;2022-10-15T05:47:57;23.20;;;21.60;;
17921;SDS011;9086;50.966;3.144;2022-10-15T05:50:23;23.47;;;21.67;;
17921;SDS011;9086;50.966;3.144;2022-10-15T05:52:49;25.37;;;23.37;;
17921;SDS011;9086;50.966;3.144;2022-10-15T05:55:15;25.37;;;23.67;;
17921;SDS011;9086;50.966;3.144;2022-10-15T05:57:41;24.47;;;22.67;;
17921;SDS011;9086;50.966;3.144;2022-10-15T06:00:07;24.63;;;22.73;;
17921;SDS011;9086;50.966;3.144;2022-10-15T06:02:33;25.90;;;24.10;;
17921;SDS011;9086;50.966;3.144;2022-10-15T06:04:59;24.30;;;22.60;;
17921;SDS011;9086;50.966;3.144;2022-10-15T06:07:25;25.77;;;24.00;;
17921;SDS011;9086;50.966;3.144;2022-10-15T06:09:51;24.43;;;22.63;;
17921;SDS011;9086;50.966;3.144;2022-10-15T06:12:17;40.27;;;26.17;;
17921;SDS011;9086;50.966;3.144;2022-10-15T06:14:43;26.13;;;24.30;;
17921;SDS011;9086;50.966;3.144;2022-10-15T06:17:10;32.40;;;29.87;;
17921;SDS011;9086;50.966;3.144;2022-10-15T06:19:36;33.50;;;31.10;;
17921;SDS011;9086;50.966;3.144;2022-10-15T06:22:02;36.63;;;34.07;;
17921;SDS011;9086;50.966;3.144;2022-10-15T06:24:28;41.23;;;38.10;;
17921;SDS011;9086;50.966;3.144;2022-10-15T06:26:54;41.87;;;38.83;;
17921;SDS011;9086;50.966;3.144;2022-10-15T06:29:20;44.60;;;41.70;;
17921;SDS011;9086;50.966;3.144;2022-10-15T06:31:46;50.27;;;47.10;;
17921;SDS011;9086;50.966;3.144;2022-10-15T06:34:12;50.53;;;47.33;;
17921;SDS011;9086;50.966;3.144;2022-10-15T06:36:38;51.67;;;48.03;;
17921;SDS011;9086;50.966;3.144;2022-10-15T06:39:04;54.20;;;50.63;;
17921;SDS011;9086;50.966;3.144;2022-10-15T06:41:30;55.07;;;51.43;;
17921;SDS011;9086;50.966;3.144;2022-10-15T06:43:56;66.77;;;62.70;;
17921;SDS011;9086;50.966;3.144;2022-10-15T06:46:22;62.97;;;59.07;;
17921;SDS011;9086;50.966;3.144;2022-10-15T06:48:48;65.43;;;61.63;;
17921;SDS011;9086;50.966;3.144;2022-10-15T06:51:15;74.33;;;70.37;;
17921;SDS011;9086;50.966;3.144;2022-10-15T06:53:41;72.80;;;68.90;;
17921;SDS011;9086;50.966;3.144;2022-10-15T06:56:08;83.53;;;79.17;;
17921;SDS011;9086;50.966;3.144;2022-10-15T06:58:34;79.70;;;75.40;;
17921;SDS011;9086;50.966;3.144;2022-10-15T07:01:01;80.47;;;76.40;;
17921;SDS011;9086;50.966;3.144;2022-10-15T07:03:27;90.23;;;85.93;;
17921;SDS011;9086;50.966;3.144;2022-10-15T07:05:54;100.90;;;96.30;;
17921;SDS011;9086;50.966;3.144;2022-10-15T07:08:20;94.70;;;90.20;;
17921;SDS011;9086;50.966;3.144;2022-10-15T07:10:46;103.33;;;98.47;;
17921;SDS011;9086;50.966;3.144;2022-10-15T07:13:12;105.83;;;101.23;;
17921;SDS011;9086;50.966;3.144;2022-10-15T07:15:38;112.03;;;107.20;;
17921;SDS011;9086;50.966;3.144;2022-10-15T07:18:04;110.27;;;105.70;;
17921;SDS011;9086;50.966;3.144;2022-10-15T07:20:30;116.63;;;111.73;;
17921;SDS011;9086;50.966;3.144;2022-10-15T07:22:57;112.07;;;107.27;;
17921;SDS011;9086;50.966;3.144;2022-10-15T07:25:24;129.10;;;123.70;;
17921;SDS011;9086;50.966;3.144;2022-10-15T07:27:50;136.10;;;130.50;;
17921;SDS011;9086;50.966;3.144;2022-10-15T07:30:16;142.87;;;137.13;;
17921;SDS011;9086;50.966;3.144;2022-10-15T07:32:42;141.67;;;136.20;;
17921;SDS011;9086;50.966;3.144;2022-10-15T07:35:09;152.53;;;146.63;;
17921;SDS011;9086;50.966;3.144;2022-10-15T07:37:35;154.43;;;148.53;;
17921;SDS011;9086;50.966;3.144;2022-10-15T07:40:01;168.40;;;162.07;;
17921;SDS011;9086;50.966;3.144;2022-10-15T07:42:27;185.17;;;178.57;;
17921;SDS011;9086;50.966;3.144;2022-10-15T07:44:53;203.50;;;196.17;;
17921;SDS011;9086;50.966;3.144;2022-10-15T07:47:19;213.13;;;205.87;;
17921;SDS011;9086;50.966;3.144;2022-10-15T07:49:45;226.27;;;218.67;;
17921;SDS011;9086;50.966;3.144;2022-10-15T07:52:11;239.03;;;231.00;;
17921;SDS011;9086;50.966;3.144;2022-10-15T07:54:37;260.77;;;252.23;;
17921;SDS011;9086;50.966;3.144;2022-10-15T07:57:03;274.23;;;265.07;;
17921;SDS011;9086;50.966;3.144;2022-10-15T07:59:31;300.60;;;290.83;;
17921;SDS011;9086;50.966;3.144;2022-10-15T08:01:57;303.87;;;293.90;;
17921;SDS011;9086;50.966;3.144;2022-10-15T08:04:23;293.97;;;284.33;;
17921;SDS011;9086;50.966;3.144;2022-10-15T08:06:49;307.20;;;297.23;;
17921;SDS011;9086;50.966;3.144;2022-10-15T08:09:16;342.00;;;331.00;;
17921;SDS011;9086;50.966;3.144;2022-10-15T08:11:42;332.63;;;321.70;;
17921;SDS011;9086;50.966;3.144;2022-10-15T08:14:08;320.40;;;309.77;;
17921;SDS011;9086;50.966;3.144;2022-10-15T08:16:34;316.77;;;306.37;;
17921;SDS011;9086;50.966;3.144;2022-10-15T08:19:00;320.30;;;309.93;;
17921;SDS011;9086;50.966;3.144;2022-10-15T08:21:26;318.60;;;308.10;;
17921;SDS011;9086;50.966;3.144;2022-10-15T08:23:52;322.13;;;311.40;;
17921;SDS011;9086;50.966;3.144;2022-10-15T08:26:18;331.80;;;320.97;;
17921;SDS011;9086;50.966;3.144;2022-10-15T08:28:44;324.83;;;314.33;;
17921;SDS011;9086;50.966;3.144;2022-10-15T08:31:10;332.63;;;322.00;;
17921;SDS011;9086;50.966;3.144;2022-10-15T08:33:37;337.37;;;326.53;;
17921;SDS011;9086;50.966;3.144;2022-10-15T08:36:04;357.87;;;346.37;;
17921;SDS011;9086;50.966;3.144;2022-10-15T08:38:30;366.17;;;354.13;;
17921;SDS011;9086;50.966;3.144;2022-10-15T08:40:57;387.37;;;374.80;;
17921;SDS011;9086;50.966;3.144;2022-10-15T08:43:34;390.57;;;377.87;;
17921;SDS011;9086;50.966;3.144;2022-10-15T08:46:02;390.37;;;377.47;;
17921;SDS011;9086;50.966;3.144;2022-10-15T08:48:31;391.53;;;378.63;;
17921;SDS011;9086;50.966;3.144;2022-10-15T08:51:13;406.20;;;392.73;;
17921;SDS011;9086;50.966;3.144;2022-10-15T08:53:42;410.77;;;396.93;;
17921;SDS011;9086;50.966;3.144;2022-10-15T08:56:14;440.87;;;425.90;;
17921;SDS011;9086;50.966;3.144;2022-10-15T09:04:24;428.30;;;413.60;;
17921;SDS011;9086;50.966;3.144;2022-10-15T09:11:40;450.77;;;435.13;;
17921;SDS011;9086;50.966;3.144;2022-10-15T09:14:13;464.70;;;448.63;;
17921;SDS011;9086;50.966;3.144;2022-10-15T09:16:40;451.30;;;435.67;;
17921;SDS011;9086;50.966;3.144;2022-10-15T09:19:11;444.70;;;429.23;;
17921;SDS011;9086;50.966;3.144;2022-10-15T09:21:47;436.03;;;421.13;;
17921;SDS011;9086;50.966;3.144;2022-10-15T09:24:16;440.47;;;425.43;;
17921;SDS011;9086;50.966;3.144;2022-10-15T09:31:49;420.63;;;406.50;;
17921;SDS011;9086;50.966;3.144;2022-10-15T09:34:23;413.93;;;400.00;;
17921;SDS011;9086;50.966;3.144;2022-10-15T09:37:04;422.33;;;408.23;;
17921;SDS011;9086;50.966;3.144;2022-10-15T09:44:39;395.37;;;382.57;;
17921;SDS011;9086;50.966;3.144;2022-10-15T09:47:16;386.50;;;374.00;;
17921;SDS011;9086;50.966;3.144;2022-10-15T09:49:47;383.20;;;370.80;;
17921;SDS011;9086;50.966;3.144;2022-10-15T09:52:16;384.60;;;372.00;;
17921;SDS011;9086;50.966;3.144;2022-10-15T09:57:13;379.97;;;367.77;;
17921;SDS011;9086;50.966;3.144;2022-10-15T09:59:51;387.77;;;375.20;;
17921;SDS011;9086;50.966;3.144;2022-10-15T10:02:18;383.87;;;371.60;;
17921;SDS011;9086;50.966;3.144;2022-10-15T10:04:44;348.20;;;337.37;;
17921;SDS011;9086;50.966;3.144;2022-10-15T10:10:24;300.03;;;291.03;;
17921;SDS011;9086;50.966;3.144;2022-10-15T10:12:51;268.17;;;260.17;;
17921;SDS011;9086;50.966;3.144;2022-10-15T10:17:53;237.50;;;230.40;;
17921;SDS011;9086;50.966;3.144;2022-10-15T10:20:20;210.87;;;204.47;;
17921;SDS011;9086;50.966;3.144;2022-10-15T10:25:26;168.67;;;163.47;;
17921;SDS011;9086;50.966;3.144;2022-10-15T10:27:53;123.20;;;119.30;;
17921;SDS011;9086;50.966;3.144;2022-10-15T10:30:20;111.87;;;108.23;;
17921;SDS011;9086;50.966;3.144;2022-10-15T10:32:46;81.93;;;79.20;;
17921;SDS011;9086;50.966;3.144;2022-10-15T10:35:20;39.97;;;38.63;;
17921;SDS011;9086;50.966;3.144;2022-10-15T10:37:46;14.10;;;13.40;;
17921;SDS011;9086;50.966;3.144;2022-10-15T10:40:34;4.90;;;4.70;;
17921;SDS011;9086;50.966;3.144;2022-10-15T10:45:54;2.90;;;1.40;;
17921;SDS011;9086;50.966;3.144;2022-10-15T10:48:23;2.70;;;0.97;;
17921;SDS011;9086;50.966;3.144;2022-10-15T10:51:00;0.97;;;0.80;;
17921;SDS011;9086;50.966;3.144;2022-10-15T10:53:30;3.10;;;1.40;;
17921;SDS011;9086;50.966;3.144;2022-10-15T10:55:56;2.43;;;0.97;;
17921;SDS011;9086;50.966;3.144;2022-10-15T10:58:23;1.73;;;1.20;;
17921;SDS011;9086;50.966;3.144;2022-10-15T11:00:54;1.80;;;1.20;;
17921;SDS011;9086;50.966;3.144;2022-10-15T11:05:49;2.70;;;1.00;;
17921;SDS011;9086;50.966;3.144;2022-10-15T11:08:27;4.80;;;1.47;;
17921;SDS011;9086;50.966;3.144;2022-10-15T11:10:58;4.90;;;1.10;;
17921;SDS011;9086;50.966;3.144;2022-10-15T11:13:44;2.57;;;1.03;;
17921;SDS011;9086;50.966;3.144;2022-10-15T11:16:14;3.00;;;0.90;;
17921;SDS011;9086;50.966;3.144;2022-10-15T11:21:17;2.60;;;1.37;;
17921;SDS011;9086;50.966;3.144;2022-10-15T11:29:19;2.70;;;0.70;;
17921;SDS011;9086;50.966;3.144;2022-10-15T11:34:35;2.33;;;1.10;;
17921;SDS011;9086;50.966;3.144;2022-10-15T11:44:53;2.97;;;1.00;;
17921;SDS011;9086;50.966;3.144;2022-10-15T11:52:30;0.98;;;0.52;;
17921;SDS011;9086;50.966;3.144;2022-10-15T11:55:03;1.40;;;0.65;;
17921;SDS011;9086;50.966;3.144;2022-10-15T11:57:32;2.05;;;0.90;;
17921;SDS011;9086;50.966;3.144;2022-10-15T12:00:02;2.35;;;0.80;;
17921;SDS011;9086;50.966;3.144;2022-10-15T12:02:35;1.83;;;0.70;;
17921;SDS011;9086;50.966;3.144;2022-10-15T12:07:36;3.13;;;1.20;;
17921;SDS011;9086;50.966;3.144;2022-10-15T12:10:20;5.07;;;1.33;;
17921;SDS011;9086;50.966;3.144;2022-10-15T12:12:56;5.78;;;1.33;;
17921;SDS011;9086;50.966;3.144;2022-10-15T12:15:26;3.40;;;1.08;;
17921;SDS011;9086;50.966;3.144;2022-10-15T12:20:31;3.03;;;1.00;;
17921;SDS011;9086;50.966;3.144;2022-10-15T12:22:58;7.78;;;1.08;;
17921;SDS011;9086;50.966;3.144;2022-10-15T12:28:01;2.38;;;0.88;;
17921;SDS011;9086;50.966;3.144;2022-10-15T12:30:28;5.93;;;1.35;;
17921;SDS011;9086;50.966;3.144;2022-10-15T12:32:58;2.70;;;1.02;;
17921;SDS011;9086;50.966;3.144;2022-10-15T12:37:57;2.85;;;0.80;;
17921;SDS011;9086;50.966;3.144;2022-10-15T12:40:33;3.67;;;1.02;;
17921;SDS011;9086;50.966;3.144;2022-10-15T12:43:00;7.00;;;1.20;;
17921;SDS011;9086;50.966;3.144;2022-10-15T12:45:48;2.63;;;0.95;;
17921;SDS011;9086;50.966;3.144;2022-10-15T12:50:39;4.85;;;0.90;;
17921;SDS011;9086;50.966;3.144;2022-10-15T13:08:47;4.47;;;1.13;;
17921;SDS011;9086;50.966;3.144;2022-10-15T13:11:48;3.10;;;1.02;;
17921;SDS011;9086;50.966;3.144;2022-10-15T13:16:51;3.45;;;1.00;;
17921;SDS011;9086;50.966;3.144;2022-10-15T13:19:22;3.55;;;1.10;;
17921;SDS011;9086;50.966;3.144;2022-10-15T13:21:52;3.67;;;1.05;;
17921;SDS011;9086;50.966;3.144;2022-10-15T13:24:20;2.30;;;0.95;;
17921;SDS011;9086;50.966;3.144;2022-10-15T13:26:47;3.00;;;0.90;;
17921;SDS011;9086;50.966;3.144;2022-10-15T13:29:14;2.70;;;1.20;;
17921;SDS011;9086;50.966;3.144;2022-10-15T13:31:41;3.25;;;1.00;;
17921;SDS011;9086;50.966;3.144;2022-10-15T13:36:40;4.35;;;1.35;;
17921;SDS011;9086;50.966;3.144;2022-10-15T13:39:07;2.22;;;0.60;;
17921;SDS011;9086;50.966;3.144;2022-10-15T13:41:45;5.40;;;1.17;;
17921;SDS011;9086;50.966;3.144;2022-10-15T13:44:20;2.67;;;0.93;;
17921;SDS011;9086;50.966;3.144;2022-10-15T13:46:46;2.63;;;0.88;;
17921;SDS011;9086;50.966;3.144;2022-10-15T13:49:12;3.30;;;1.10;;
17921;SDS011;9086;50.966;3.144;2022-10-15T13:51:46;5.00;;;0.95;;
17921;SDS011;9086;50.966;3.144;2022-10-15T13:54:15;1.77;;;0.98;;
17921;SDS011;9086;50.966;3.144;2022-10-15T13:56:43;2.67;;;0.82;;
17921;SDS011;9086;50.966;3.144;2022-10-15T13:59:14;4.38;;;1.00;;
17921;SDS011;9086;50.966;3.144;2022-10-15T14:01:45;1.85;;;0.73;;
17921;SDS011;9086;50.966;3.144;2022-10-15T14:04:16;2.20;;;0.88;;
17921;SDS011;9086;50.966;3.144;2022-10-15T14:06:47;3.50;;;0.98;;
17921;SDS011;9086;50.966;3.144;2022-10-15T14:09:18;4.22;;;1.08;;
17921;SDS011;9086;50.966;3.144;2022-10-15T14:11:44;3.92;;;0.90;;
17921;SDS011;9086;50.966;3.144;2022-10-15T14:14:26;2.95;;;1.00;;
17921;SDS011;9086;50.966;3.144;2022-10-15T14:16:53;4.90;;;1.08;;
17921;SDS011;9086;50.966;3.144;2022-10-15T14:19:20;4.75;;;1.15;;
17921;SDS011;9086;50.966;3.144;2022-10-15T14:21:51;4.13;;;0.90;;
17921;SDS011;9086;50.966;3.144;2022-10-15T14:24:21;4.35;;;0.70;;
17921;SDS011;9086;50.966;3.144;2022-10-15T14:26:48;1.77;;;0.82;;
17921;SDS011;9086;50.966;3.144;2022-10-15T14:29:24;4.22;;;0.68;;
17921;SDS011;9086;50.966;3.144;2022-10-15T14:31:50;2.55;;;0.80;;
17921;SDS011;9086;50.966;3.144;2022-10-15T14:42:40;2.90;;;0.88;;
17921;SDS011;9086;50.966;3.144;2022-10-15T14:47:46;2.45;;;0.50;;
17921;SDS011;9086;50.966;3.144;2022-10-15T14:50:12;6.20;;;0.90;;
17921;SDS011;9086;50.966;3.144;2022-10-15T14:52:42;2.03;;;0.65;;
17921;SDS011;9086;50.966;3.144;2022-10-15T14:55:13;4.82;;;0.80;;
17921;SDS011;9086;50.966;3.144;2022-10-15T14:57:40;3.55;;;1.23;;
17921;SDS011;9086;50.966;3.144;2022-10-15T15:02:46;3.42;;;1.00;;
17921;SDS011;9086;50.966;3.144;2022-10-15T15:07:41;4.00;;;1.27;;
17921;SDS011;9086;50.966;3.144;2022-10-15T15:10:08;4.60;;;0.90;;
17921;SDS011;9086;50.966;3.144;2022-10-15T15:12:37;3.03;;;1.10;;
17921;SDS011;9086;50.966;3.144;2022-10-15T15:15:07;2.53;;;0.80;;
17921;SDS011;9086;50.966;3.144;2022-10-15T15:17:37;7.18;;;1.25;;
17921;SDS011;9086;50.966;3.144;2022-10-15T15:20:04;4.07;;;1.13;;
17921;SDS011;9086;50.966;3.144;2022-10-15T15:22:30;4.57;;;1.10;;
17921;SDS011;9086;50.966;3.144;2022-10-15T15:24:57;5.80;;;1.35;;
17921;SDS011;9086;50.966;3.144;2022-10-15T15:27:25;5.45;;;1.35;;
17921;SDS011;9086;50.966;3.144;2022-10-15T15:29:52;5.03;;;1.20;;
17921;SDS011;9086;50.966;3.144;2022-10-15T15:32:18;7.68;;;1.67;;
17921;SDS011;9086;50.966;3.144;2022-10-15T15:34:45;2.90;;;1.05;;
17921;SDS011;9086;50.966;3.144;2022-10-15T15:37:19;3.92;;;0.80;;
17921;SDS011;9086;50.966;3.144;2022-10-15T15:39:45;2.05;;;0.80;;
17921;SDS011;9086;50.966;3.144;2022-10-15T15:42:12;4.23;;;1.00;;
17921;SDS011;9086;50.966;3.144;2022-10-15T15:44:39;4.27;;;1.00;;
17921;SDS011;9086;50.966;3.144;2022-10-15T15:47:05;4.83;;;1.27;;
17921;SDS011;9086;50.966;3.144;2022-10-15T15:49:31;5.47;;;1.10;;
17921;SDS011;9086;50.966;3.144;2022-10-15T15:51:57;4.83;;;0.93;;
17921;SDS011;9086;50.966;3.144;2022-10-15T15:54:23;1.48;;;0.75;;
17921;SDS011;9086;50.966;3.144;2022-10-15T15:56:49;2.05;;;0.70;;
17921;SDS011;9086;50.966;3.144;2022-10-15T15:59:15;2.13;;;0.93;;
17921;SDS011;9086;50.966;3.144;2022-10-15T16:01:43;6.43;;;1.03;;
17921;SDS011;9086;50.966;3.144;2022-10-15T16:04:12;6.73;;;1.73;;
17921;SDS011;9086;50.966;3.144;2022-10-15T16:06:39;3.60;;;1.13;;
17921;SDS011;9086;50.966;3.144;2022-10-15T16:09:06;4.07;;;1.07;;
17921;SDS011;9086;50.966;3.144;2022-10-15T16:11:32;2.60;;;1.13;;
17921;SDS011;9086;50.966;3.144;2022-10-15T16:13:58;3.47;;;1.33;;
17921;SDS011;9086;50.966;3.144;2022-10-15T16:16:24;5.03;;;0.93;;
17921;SDS011;9086;50.966;3.144;2022-10-15T16:18:52;3.30;;;1.10;;
17921;SDS011;9086;50.966;3.144;2022-10-15T16:21:22;2.70;;;1.20;;
17921;SDS011;9086;50.966;3.144;2022-10-15T16:23:48;5.87;;;1.10;;
17921;SDS011;9086;50.966;3.144;2022-10-15T16:26:15;5.43;;;1.60;;
17921;SDS011;9086;50.966;3.144;2022-10-15T16:28:41;3.27;;;1.27;;
17921;SDS011;9086;50.966;3.144;2022-10-15T16:31:17;1.93;;;1.03;;
17921;SDS011;9086;50.966;3.144;2022-10-15T16:33:43;5.47;;;1.37;;
17921;SDS011;9086;50.966;3.144;2022-10-15T16:36:09;5.40;;;1.53;;
17921;SDS011;9086;50.966;3.144;2022-10-15T16:38:37;4.67;;;1.30;;
17921;SDS011;9086;50.966;3.144;2022-10-15T16:41:03;3.33;;;1.30;;
17921;SDS011;9086;50.966;3.144;2022-10-15T16:43:29;3.87;;;1.37;;
17921;SDS011;9086;50.966;3.144;2022-10-15T16:45:55;4.63;;;2.00;;
17921;SDS011;9086;50.966;3.144;2022-10-15T16:48:22;4.80;;;2.73;;
17921;SDS011;9086;50.966;3.144;2022-10-15T16:50:57;6.43;;;1.90;;